createdAt,value
2024-03-21T00:01:13.066Z,23.73
2024-03-21T00:03:18.503Z,23.73
2024-03-21T00:05:23.951Z,23.73
2024-03-21T00:07:29.495Z,23.73
2024-03-21T00:09:34.827Z,23.73
2024-03-21T00:11:40.311Z,23.72
2024-03-21T00:13:47.188Z,23.72
2024-03-21T00:15:53.812Z,23.71
2024-03-21T00:17:59.257Z,23.71
2024-03-21T00:20:04.697Z,23.71
2024-03-21T00:22:10.141Z,23.7
2024-03-21T00:24:15.580Z,23.7
2024-03-21T00:26:21.033Z,23.7
2024-03-21T00:28:26.469Z,23.69
2024-03-21T00:30:32.102Z,23.69
2024-03-21T00:32:37.639Z,23.69
2024-03-21T00:34:43.297Z,23.69
2024-03-21T00:36:48.626Z,23.69
2024-03-21T00:38:54.030Z,23.69
2024-03-21T00:40:59.609Z,23.68
2024-03-21T00:43:05.056Z,23.68
2024-03-21T00:45:10.340Z,23.67
2024-03-21T00:47:15.831Z,23.67
2024-03-21T00:49:21.167Z,23.66
2024-03-21T00:51:26.615Z,23.66
2024-03-21T00:53:31.950Z,23.65
2024-03-21T00:55:37.290Z,23.66
2024-03-21T00:57:42.935Z,23.66
2024-03-21T00:59:48.476Z,23.66
2024-03-21T01:01:53.819Z,23.66
2024-03-21T01:03:59.357Z,23.66
2024-03-21T01:06:04.905Z,23.67
2024-03-21T01:08:10.444Z,23.66
2024-03-21T01:10:15.880Z,23.66
2024-03-21T01:12:21.317Z,23.65
2024-03-21T01:14:26.761Z,23.65
2024-03-21T01:16:32.199Z,23.64
2024-03-21T01:18:37.650Z,23.64
2024-03-21T01:20:42.979Z,23.63
2024-03-21T01:22:48.543Z,23.63
2024-03-21T01:24:54.173Z,23.63
2024-03-21T01:26:59.532Z,23.62
2024-03-21T01:29:04.945Z,23.62
2024-03-21T01:31:10.334Z,23.62
2024-03-21T01:33:15.722Z,23.61
2024-03-21T01:35:21.176Z,23.61
2024-03-21T01:37:26.610Z,23.59
2024-03-21T01:39:32.149Z,23.59
2024-03-21T01:41:37.693Z,23.6
2024-03-21T01:43:43.135Z,23.59
2024-03-21T01:45:48.479Z,23.58
2024-03-21T01:47:53.915Z,23.57
2024-03-21T01:49:59.262Z,23.56
2024-03-21T01:52:04.590Z,23.55
2024-03-21T01:54:09.940Z,23.54
2024-03-21T01:56:15.369Z,23.54
2024-03-21T01:58:20.816Z,23.53
2024-03-21T02:00:26.151Z,23.52
2024-03-21T02:02:31.589Z,23.52
2024-03-21T02:04:36.936Z,23.5
2024-03-21T02:06:42.369Z,23.5
2024-03-21T02:08:47.807Z,23.49
2024-03-21T02:10:53.248Z,23.49
2024-03-21T02:12:58.691Z,23.5
2024-03-21T02:15:04.136Z,23.49
2024-03-21T02:17:09.566Z,23.49
2024-03-21T02:19:15.008Z,23.48
2024-03-21T02:21:20.503Z,23.48
2024-03-21T02:23:25.896Z,23.48
2024-03-21T02:25:31.330Z,23.46
2024-03-21T02:27:36.770Z,23.45
2024-03-21T02:29:42.213Z,23.46
2024-03-21T02:31:47.650Z,23.45
2024-03-21T02:33:53.091Z,23.44
2024-03-21T02:35:58.492Z,23.44
2024-03-21T02:38:03.893Z,23.42
2024-03-21T02:40:09.362Z,23.42
2024-03-21T02:42:14.656Z,23.42
2024-03-21T02:44:19.994Z,23.41
2024-03-21T02:46:27.159Z,23.4
2024-03-21T02:48:32.818Z,23.39
2024-03-21T02:50:38.258Z,23.39
2024-03-21T02:52:43.593Z,23.39
2024-03-21T02:54:49.038Z,23.37
2024-03-21T02:56:54.477Z,23.37
2024-03-21T02:58:59.915Z,23.36
2024-03-21T03:01:05.252Z,23.36
2024-03-21T03:03:10.694Z,23.35
2024-03-21T03:05:16.138Z,23.36
2024-03-21T03:07:21.507Z,23.36
2024-03-21T03:09:26.915Z,23.35
2024-03-21T03:11:32.355Z,23.35
2024-03-21T03:13:37.797Z,23.34
2024-03-21T03:15:43.241Z,23.34
2024-03-21T03:17:48.569Z,23.34
2024-03-21T03:19:54.044Z,23.33
2024-03-21T03:21:59.558Z,23.33
2024-03-21T03:24:04.998Z,23.32
2024-03-21T03:26:10.436Z,23.32
2024-03-21T03:28:15.876Z,23.32
2024-03-21T03:30:21.113Z,23.32
2024-03-21T03:32:26.556Z,23.31
2024-03-21T03:34:32.014Z,23.3
2024-03-21T03:36:37.339Z,23.3
2024-03-21T03:38:42.779Z,23.3
2024-03-21T03:42:16.596Z,23.26
2024-03-21T03:44:21.924Z,23.28
2024-03-21T03:46:27.367Z,23.27
2024-03-21T03:48:32.812Z,23.27
2024-03-21T03:50:38.348Z,23.26
2024-03-21T03:52:43.796Z,23.26
2024-03-21T03:54:49.231Z,23.26
2024-03-21T03:56:54.877Z,23.25
2024-03-21T03:59:00.319Z,23.25
2024-03-21T04:01:05.632Z,23.25
2024-03-21T04:03:11.197Z,23.25
2024-03-21T04:05:16.657Z,23.23
2024-03-21T04:07:22.024Z,23.23
2024-03-21T04:09:27.631Z,23.23
2024-03-21T04:11:33.062Z,23.23
2024-03-21T04:13:38.505Z,23.22
2024-03-21T04:15:43.943Z,23.21
2024-03-21T04:17:49.383Z,23.2
2024-03-21T04:19:54.756Z,23.2
2024-03-21T04:22:00.162Z,23.21
2024-03-21T04:24:05.604Z,23.2
2024-03-21T04:26:10.941Z,23.2
2024-03-21T04:28:16.383Z,23.19
2024-03-21T04:30:21.825Z,23.2
2024-03-21T04:32:27.262Z,23.2
2024-03-21T04:34:32.707Z,23.2
2024-03-21T04:36:39.886Z,23.19
2024-03-21T04:38:47.684Z,23.2
2024-03-21T04:40:53.134Z,23.19
2024-03-21T04:42:58.560Z,23.19
2024-03-21T04:45:03.999Z,23.19
2024-03-21T04:47:09.342Z,23.18
2024-03-21T04:49:14.683Z,23.18
2024-03-21T04:51:20.121Z,23.17
2024-03-21T04:53:25.560Z,23.17
2024-03-21T04:55:30.998Z,23.16
2024-03-21T04:57:36.439Z,23.16
2024-03-21T04:59:41.881Z,23.15
2024-03-21T05:01:47.219Z,23.14
2024-03-21T05:03:52.667Z,23.13
2024-03-21T05:05:58.215Z,23.14
2024-03-21T05:08:03.746Z,23.14
2024-03-21T05:10:09.492Z,23.13
2024-03-21T05:12:19.240Z,23.15
2024-03-21T05:14:24.678Z,23.14
2024-03-21T05:16:30.121Z,23.14
2024-03-21T05:18:35.560Z,23.13
2024-03-21T05:20:40.944Z,23.13
2024-03-21T05:22:46.339Z,23.12
2024-03-21T05:24:51.675Z,23.12
2024-03-21T05:26:57.119Z,23.11
2024-03-21T05:29:02.562Z,23.12
2024-03-21T05:31:08.004Z,23.11
2024-03-21T05:33:13.342Z,23.11
2024-03-21T05:35:18.984Z,23.1
2024-03-21T05:37:24.423Z,23.1
2024-03-21T05:39:29.873Z,23.1
2024-03-21T05:41:35.301Z,23.1
2024-03-21T05:43:40.844Z,23.1
2024-03-21T05:45:46.287Z,23.1
2024-03-21T05:47:51.841Z,23.12
2024-03-21T05:49:57.270Z,23.12
2024-03-21T05:52:02.820Z,23.12
2024-03-21T05:54:08.149Z,23.11
2024-03-21T05:56:13.549Z,23.12
2024-03-21T05:58:19.136Z,23.12
2024-03-21T06:00:24.693Z,23.1
2024-03-21T06:02:30.018Z,23.1
2024-03-21T06:04:35.458Z,23.1
2024-03-21T06:06:40.790Z,23.1
2024-03-21T06:08:46.231Z,23.08
2024-03-21T06:10:51.684Z,23.08
2024-03-21T06:12:57.226Z,23.08
2024-03-21T06:15:02.576Z,23.07
2024-03-21T06:17:08.112Z,23.06
2024-03-21T06:19:13.547Z,23.06
2024-03-21T06:21:18.981Z,23.07
2024-03-21T06:23:24.419Z,23.06
2024-03-21T06:25:29.759Z,23.06
2024-03-21T06:27:35.202Z,23.05
2024-03-21T06:29:40.656Z,23.05
2024-03-21T06:31:45.978Z,23.05
2024-03-21T06:33:51.316Z,23.03
2024-03-21T06:35:56.967Z,23.03
2024-03-21T06:38:02.241Z,23.03
2024-03-21T06:40:07.843Z,23.02
2024-03-21T06:42:13.279Z,23.03
2024-03-21T06:44:19.135Z,23.04
2024-03-21T06:46:24.475Z,23.03
2024-03-21T06:48:29.912Z,23.01
2024-03-21T06:50:35.254Z,23
2024-03-21T06:52:40.590Z,22.98
2024-03-21T06:54:46.025Z,22.97
2024-03-21T06:56:51.685Z,22.97
2024-03-21T06:58:57.384Z,22.95
2024-03-21T07:01:02.762Z,22.96
2024-03-21T07:03:08.199Z,22.96
2024-03-21T07:05:13.541Z,22.97
2024-03-21T07:07:18.881Z,22.97
2024-03-21T07:09:24.324Z,22.96
2024-03-21T07:11:29.655Z,22.95
2024-03-21T07:13:36.054Z,22.95
2024-03-21T07:15:41.459Z,22.96
2024-03-21T07:17:46.908Z,22.97
2024-03-21T07:19:52.343Z,22.97
2024-03-21T07:21:57.783Z,22.97
2024-03-21T07:24:03.325Z,22.97
2024-03-21T07:26:08.810Z,22.98
2024-03-21T07:28:14.109Z,22.98
2024-03-21T07:30:19.540Z,22.99
2024-03-21T07:32:25.091Z,23
2024-03-21T07:34:33.073Z,23.01
2024-03-21T07:36:39.048Z,23.01
2024-03-21T07:38:44.389Z,23.01
2024-03-21T07:40:49.924Z,23.01
2024-03-21T07:42:55.270Z,23.01
2024-03-21T07:45:00.696Z,23.01
2024-03-21T07:47:06.142Z,23.01
2024-03-21T07:49:11.591Z,23.02
2024-03-21T07:51:17.019Z,23.02
2024-03-21T07:53:22.455Z,23.02
2024-03-21T07:55:27.799Z,23.03
2024-03-21T07:57:35.591Z,23.03
2024-03-21T07:59:41.028Z,23.02
2024-03-21T08:01:46.367Z,23.03
2024-03-21T08:03:51.807Z,23.04
2024-03-21T08:05:57.356Z,23.03
2024-03-21T08:08:02.698Z,23.03
2024-03-21T08:10:08.141Z,23.03
2024-03-21T08:12:13.583Z,23.03
2024-03-21T08:14:19.217Z,23.03
2024-03-21T08:16:24.761Z,23.03
2024-03-21T08:18:30.200Z,23.03
2024-03-21T08:20:35.761Z,23.02
2024-03-21T08:22:41.297Z,23.03
2024-03-21T08:24:46.738Z,23.02
2024-03-21T08:26:52.068Z,23.02
2024-03-21T08:28:57.422Z,23.02
2024-03-21T08:31:02.954Z,23.02
2024-03-21T08:33:08.510Z,23.02
2024-03-21T08:35:13.931Z,23.02
2024-03-21T08:37:19.275Z,23.01
2024-03-21T08:39:24.712Z,23.02
2024-03-21T08:41:30.197Z,23.02
2024-03-21T08:43:35.701Z,23.01
2024-03-21T08:45:41.033Z,23.02
2024-03-21T08:47:46.827Z,23.02
2024-03-21T08:49:52.154Z,23.02
2024-03-21T08:51:57.758Z,23.02
2024-03-21T08:54:03.118Z,23.03
2024-03-21T08:56:08.557Z,23.03
2024-03-21T08:58:13.870Z,23.02
2024-03-21T09:00:19.115Z,23.02
2024-03-21T09:02:24.666Z,23.03
2024-03-21T09:04:30.103Z,23.04
2024-03-21T09:06:35.639Z,23.04
2024-03-21T09:08:41.177Z,23.04
2024-03-21T09:10:46.721Z,23.04
2024-03-21T09:12:52.082Z,23.04
2024-03-21T09:14:58.012Z,23.05
2024-03-21T09:17:03.772Z,23.04
2024-03-21T09:19:09.517Z,23.05
2024-03-21T09:21:14.958Z,23.05
2024-03-21T09:23:20.292Z,23.06
2024-03-21T09:25:25.841Z,23.07
2024-03-21T09:27:33.247Z,23.07
2024-03-21T09:29:39.420Z,23.08
2024-03-21T09:31:44.917Z,23.08
2024-03-21T09:33:50.363Z,23.08
2024-03-21T09:35:55.802Z,23.09
2024-03-21T09:38:01.240Z,23.08
2024-03-21T09:40:06.679Z,23.09
2024-03-21T09:42:12.121Z,23.09
2024-03-21T09:44:17.564Z,23.1
2024-03-21T09:46:23.106Z,23.11
2024-03-21T09:48:28.676Z,23.12
2024-03-21T09:50:34.089Z,23.12
2024-03-21T09:52:39.635Z,23.12
2024-03-21T09:54:45.137Z,23.14
2024-03-21T09:56:50.515Z,23.15
2024-03-21T09:58:55.850Z,23.15
2024-03-21T10:01:01.406Z,23.15
2024-03-21T10:03:06.936Z,23.16
2024-03-21T10:05:12.482Z,23.17
2024-03-21T10:07:17.922Z,23.17
2024-03-21T10:09:23.363Z,23.17
2024-03-21T10:11:28.801Z,23.18
2024-03-21T10:13:34.241Z,23.16
2024-03-21T10:15:39.778Z,23.12
2024-03-21T10:17:45.247Z,23.11
2024-03-21T10:19:50.557Z,23.1
2024-03-21T10:21:56.008Z,23.09
2024-03-21T10:24:01.595Z,23.08
2024-03-21T10:26:07.004Z,23.08
2024-03-21T10:28:12.534Z,23.09
2024-03-21T10:30:18.075Z,23.08
2024-03-21T10:32:23.422Z,23.09
2024-03-21T10:34:28.852Z,23.09
2024-03-21T10:36:34.173Z,23.09
2024-03-21T10:38:39.547Z,23.1
2024-03-21T10:40:45.069Z,23.1
2024-03-21T10:42:50.512Z,23.11
2024-03-21T10:44:55.966Z,23.12
2024-03-21T10:47:01.286Z,23.12
2024-03-21T10:49:06.629Z,23.15
2024-03-21T10:51:12.276Z,23.16
2024-03-21T10:53:19.761Z,23.16
2024-03-21T10:55:27.481Z,23.17
2024-03-21T10:57:33.106Z,23.17
2024-03-21T10:59:38.550Z,23.18
2024-03-21T11:01:44.012Z,23.19
2024-03-21T11:03:49.526Z,23.21
2024-03-21T11:05:55.071Z,23.22
2024-03-21T11:08:00.520Z,23.24
2024-03-21T11:10:06.057Z,23.25
2024-03-21T11:12:11.593Z,23.25
2024-03-21T11:14:17.040Z,23.26
2024-03-21T11:16:22.479Z,23.27
2024-03-21T11:18:28.088Z,23.29
2024-03-21T11:20:33.675Z,23.3
2024-03-21T11:22:39.426Z,23.3
2024-03-21T11:24:44.950Z,23.32
2024-03-21T11:26:50.291Z,23.32
2024-03-21T11:28:59.218Z,23.32
2024-03-21T11:31:22.183Z,23.33
2024-03-21T11:33:27.707Z,23.35
2024-03-21T11:35:33.155Z,23.35
2024-03-21T11:37:38.592Z,23.38
2024-03-21T11:39:44.232Z,23.4
2024-03-21T11:41:49.675Z,23.41
2024-03-21T11:43:55.025Z,23.43
2024-03-21T11:46:00.672Z,23.45
2024-03-21T11:48:06.204Z,23.47
2024-03-21T11:50:11.565Z,23.49
2024-03-21T11:52:17.004Z,23.49
2024-03-21T11:54:22.530Z,23.5
2024-03-21T11:56:27.863Z,23.51
2024-03-21T11:58:33.304Z,23.51
2024-03-21T12:00:38.648Z,23.49
2024-03-21T12:02:43.989Z,23.48
2024-03-21T12:04:50.572Z,23.47
2024-03-21T12:06:55.912Z,23.49
2024-03-21T12:09:01.322Z,23.5
2024-03-21T12:11:07.071Z,23.49
2024-03-21T12:13:12.518Z,23.51
2024-03-21T12:15:17.959Z,23.51
2024-03-21T12:17:23.292Z,23.52
2024-03-21T12:19:28.943Z,23.52
2024-03-21T12:21:34.553Z,23.51
2024-03-21T12:23:40.024Z,23.52
2024-03-21T12:25:45.572Z,23.53
2024-03-21T12:27:51.010Z,23.53
2024-03-21T12:29:56.549Z,23.53
2024-03-21T12:32:01.990Z,23.54
2024-03-21T12:34:07.434Z,23.54
2024-03-21T12:36:12.974Z,23.55
2024-03-21T12:38:18.516Z,23.56
2024-03-21T12:40:23.955Z,23.57
2024-03-21T12:42:29.300Z,23.58
2024-03-21T12:44:34.953Z,23.58
2024-03-21T12:46:40.381Z,23.59
2024-03-21T12:48:45.722Z,23.6
2024-03-21T12:50:51.361Z,23.6
2024-03-21T12:52:56.703Z,23.59
2024-03-21T12:55:02.217Z,23.6
2024-03-21T12:57:07.795Z,23.6
2024-03-21T12:59:13.458Z,23.61
2024-03-21T13:01:19.050Z,23.61
2024-03-21T13:03:24.636Z,23.61
2024-03-21T13:05:30.178Z,23.61
2024-03-21T13:07:35.706Z,23.61
2024-03-21T13:09:41.149Z,23.61
2024-03-21T13:11:46.598Z,23.62
2024-03-21T13:13:52.042Z,23.63
2024-03-21T13:15:57.575Z,23.65
2024-03-21T13:18:03.023Z,23.65
2024-03-21T13:20:08.464Z,23.66
2024-03-21T13:22:13.998Z,23.68
2024-03-21T13:24:19.441Z,23.67
2024-03-21T13:26:24.894Z,23.67
2024-03-21T13:28:30.323Z,23.67
2024-03-21T13:30:35.969Z,23.66
2024-03-21T13:32:41.516Z,23.65
2024-03-21T13:34:47.876Z,23.65
2024-03-21T13:36:53.355Z,23.66
2024-03-21T13:38:58.859Z,23.67
2024-03-21T13:41:04.403Z,23.69
2024-03-21T13:43:09.842Z,23.69
2024-03-21T13:45:15.279Z,23.69
2024-03-21T13:47:20.616Z,23.71
2024-03-21T13:49:26.165Z,23.73
2024-03-21T13:51:31.608Z,23.75
2024-03-21T13:53:43.205Z,23.78
2024-03-21T13:55:59.279Z,23.79
2024-03-21T13:58:04.721Z,23.81
2024-03-21T14:00:11.042Z,23.82
2024-03-21T14:02:17.545Z,23.84
2024-03-21T14:04:23.291Z,23.86
2024-03-21T14:06:28.632Z,23.86
2024-03-21T14:08:34.071Z,23.87
2024-03-21T14:10:39.516Z,23.89
2024-03-21T14:12:45.057Z,23.9
2024-03-21T14:14:50.395Z,23.9
2024-03-21T14:16:55.728Z,23.91
2024-03-21T14:19:01.111Z,23.91
2024-03-21T14:21:06.614Z,23.87
2024-03-21T14:23:11.950Z,23.87
2024-03-21T14:25:17.350Z,23.89
2024-03-21T14:27:22.736Z,23.9
2024-03-21T14:29:28.116Z,23.92
2024-03-21T14:31:33.602Z,23.92
2024-03-21T14:33:39.159Z,23.93
2024-03-21T14:35:44.589Z,23.94
2024-03-21T14:37:49.929Z,23.96
2024-03-21T14:39:57.132Z,23.96
2024-03-21T14:42:23.231Z,23.97
2024-03-21T14:44:28.676Z,23.98
2024-03-21T14:46:34.109Z,23.99
2024-03-21T14:48:39.669Z,23.99
2024-03-21T14:50:44.994Z,24
2024-03-21T14:52:50.550Z,24
2024-03-21T14:54:55.977Z,24
2024-03-21T14:57:02.336Z,24.01
2024-03-21T14:59:07.771Z,24.02
2024-03-21T15:01:14.966Z,24.02
2024-03-21T15:03:20.392Z,24.03
2024-03-21T15:05:25.834Z,24.04
2024-03-21T15:07:31.272Z,24.05
2024-03-21T15:09:36.630Z,24.04
2024-03-21T15:11:41.943Z,24.04
2024-03-21T15:13:47.394Z,24.03
2024-03-21T15:15:52.834Z,24.03
2024-03-21T15:17:58.268Z,24.02
2024-03-21T15:20:08.114Z,24.03
2024-03-21T15:22:13.482Z,24.03
2024-03-21T15:24:19.089Z,24.03
2024-03-21T15:26:24.524Z,24.04
2024-03-21T15:28:29.983Z,24.05
2024-03-21T15:30:35.456Z,24.06
2024-03-21T15:32:40.923Z,24.05
2024-03-21T15:34:52.118Z,24.06
2024-03-21T15:37:16.229Z,24.07
2024-03-21T15:39:22.675Z,24.07
2024-03-21T15:41:28.000Z,24.08
2024-03-21T15:43:33.470Z,24.08
2024-03-21T15:45:38.888Z,24.1
2024-03-21T15:47:44.638Z,24.1
2024-03-21T15:49:51.595Z,24.11
2024-03-21T15:51:58.588Z,24.1
2024-03-21T15:54:04.053Z,24.1
2024-03-21T15:56:09.480Z,24.1
2024-03-21T15:58:14.916Z,24.11
2024-03-21T16:00:20.486Z,24.1
2024-03-21T16:02:30.105Z,24.11
2024-03-21T16:04:35.635Z,24.08
2024-03-21T16:06:41.175Z,24.09
2024-03-21T16:08:46.607Z,24.1
2024-03-21T16:10:52.182Z,24.11
2024-03-21T16:12:57.583Z,24.12
2024-03-21T16:15:03.137Z,24.13
2024-03-21T16:17:08.712Z,24.14
2024-03-21T16:19:14.136Z,24.14
2024-03-21T16:21:19.550Z,24.16
2024-03-21T16:23:25.041Z,24.17
2024-03-21T16:25:30.434Z,24.17
2024-03-21T16:27:35.872Z,24.17
2024-03-21T16:29:41.325Z,24.17
2024-03-21T16:31:46.752Z,24.18
2024-03-21T16:33:52.105Z,24.17
2024-03-21T16:35:57.431Z,24.18
2024-03-21T16:38:03.013Z,24.19
2024-03-21T16:40:08.618Z,24.2
2024-03-21T16:42:13.951Z,24.2
2024-03-21T16:44:19.425Z,24.21
2024-03-21T16:46:24.934Z,24.22
2024-03-21T16:48:30.371Z,24.22
2024-03-21T16:50:35.706Z,24.22
2024-03-21T16:52:41.274Z,24.21
2024-03-21T16:54:47.098Z,24.21
2024-03-21T16:56:52.664Z,24.21
2024-03-21T16:58:57.939Z,24.21
2024-03-21T17:01:03.315Z,24.21
2024-03-21T17:03:08.760Z,24.22
2024-03-21T17:05:14.207Z,24.21
2024-03-21T17:07:19.869Z,24.2
2024-03-21T17:09:25.304Z,24.21
2024-03-21T17:11:30.839Z,24.2
2024-03-21T17:13:36.383Z,24.2
2024-03-21T17:15:41.817Z,24.18
2024-03-21T17:17:47.256Z,24.2
2024-03-21T17:19:52.796Z,24.2
2024-03-21T17:21:58.241Z,24.21
2024-03-21T17:24:03.679Z,24.23
2024-03-21T17:26:09.168Z,24.22
2024-03-21T17:28:14.764Z,24.2
2024-03-21T17:30:20.313Z,24.2
2024-03-21T17:32:25.875Z,24.19
2024-03-21T17:34:31.402Z,24.19
2024-03-21T17:36:36.845Z,24.22
2024-03-21T17:38:42.283Z,24.25
2024-03-21T17:40:47.825Z,24.27
2024-03-21T17:42:53.261Z,24.29
2024-03-21T17:44:58.824Z,24.29
2024-03-21T17:47:04.357Z,24.29
2024-03-21T17:49:09.794Z,24.3
2024-03-21T17:51:15.233Z,24.3
2024-03-21T17:53:20.682Z,24.3
2024-03-21T17:55:26.221Z,24.24
2024-03-21T17:57:31.614Z,24.19
2024-03-21T17:59:37.002Z,24.18
2024-03-21T18:01:42.442Z,24.18
2024-03-21T18:03:47.773Z,24.15
2024-03-21T18:05:53.344Z,24.13
2024-03-21T18:07:58.764Z,24.16
2024-03-21T18:10:04.295Z,24.18
2024-03-21T18:12:09.956Z,24.16
2024-03-21T18:14:15.488Z,24.15
2024-03-21T18:16:21.047Z,24.12
2024-03-21T18:18:26.471Z,24.13
2024-03-21T18:20:32.010Z,24.15
2024-03-21T18:22:37.355Z,24.17
2024-03-21T18:24:42.907Z,24.19
2024-03-21T18:26:48.230Z,24.21
2024-03-21T18:28:53.568Z,24.22
2024-03-21T18:30:59.017Z,24.22
2024-03-21T18:33:04.451Z,24.21
2024-03-21T18:35:09.791Z,24.22
2024-03-21T18:37:15.135Z,24.21
2024-03-21T18:39:20.572Z,24.21
2024-03-21T18:41:25.967Z,24.2
2024-03-21T18:43:31.183Z,24.2
2024-03-21T18:45:36.479Z,24.17
2024-03-21T18:47:41.819Z,24.17
2024-03-21T18:49:47.255Z,24.18
2024-03-21T18:51:52.712Z,24.18
2024-03-21T18:53:58.136Z,24.18
2024-03-21T18:56:03.687Z,24.17
2024-03-21T18:58:09.115Z,24.17
2024-03-21T19:00:14.567Z,24.15
2024-03-21T19:02:19.998Z,24.15
2024-03-21T19:04:25.545Z,24.13
2024-03-21T19:06:30.890Z,24.13
2024-03-21T19:08:36.292Z,24.12
2024-03-21T19:10:41.655Z,24.12
2024-03-21T19:12:47.101Z,24.12
2024-03-21T19:14:52.544Z,24.11
2024-03-21T19:16:57.977Z,24.1
2024-03-21T19:19:03.416Z,24.1
2024-03-21T19:21:08.982Z,24.09
2024-03-21T19:23:14.401Z,24.09
2024-03-21T19:25:19.784Z,24.09
2024-03-21T19:27:25.178Z,24.08
2024-03-21T19:29:30.532Z,24.08
2024-03-21T19:31:35.854Z,24.08
2024-03-21T19:33:41.447Z,24.08
2024-03-21T19:35:46.837Z,24.07
2024-03-21T19:37:52.288Z,24.07
2024-03-21T19:39:57.626Z,24.07
2024-03-21T19:42:02.968Z,24.07
2024-03-21T19:44:08.509Z,24.06
2024-03-21T19:46:13.942Z,24.06
2024-03-21T19:48:19.379Z,24.06
2024-03-21T19:50:24.721Z,24.06
2024-03-21T19:52:30.163Z,24.06
2024-03-21T19:54:35.572Z,24.06
2024-03-21T19:56:41.047Z,24.05
2024-03-21T19:58:46.272Z,24.05
2024-03-21T20:00:51.639Z,24.04
2024-03-21T20:02:57.052Z,24.04
2024-03-21T20:05:02.500Z,24.04
2024-03-21T20:07:07.946Z,24.02
2024-03-21T20:09:15.018Z,23.95
2024-03-21T20:11:20.458Z,23.89
2024-03-21T20:13:26.014Z,23.83
2024-03-21T20:15:31.726Z,23.76
2024-03-21T20:17:37.201Z,23.72
2024-03-21T20:19:42.748Z,23.71
2024-03-21T20:21:48.090Z,23.68
2024-03-21T20:23:53.509Z,23.67
2024-03-21T20:25:59.051Z,23.65
2024-03-21T20:28:04.601Z,23.64
2024-03-21T20:30:10.151Z,23.65
2024-03-21T20:32:15.453Z,23.65
2024-03-21T20:34:20.713Z,23.66
2024-03-21T20:36:26.157Z,23.66
2024-03-21T20:38:31.595Z,23.68
2024-03-21T20:40:37.035Z,23.66
2024-03-21T20:42:42.363Z,23.64
2024-03-21T20:44:47.917Z,23.62
2024-03-21T20:46:53.462Z,23.62
2024-03-21T20:48:58.795Z,23.59
2024-03-21T20:51:04.241Z,23.59
2024-03-21T20:53:09.578Z,23.57
2024-03-21T20:55:15.227Z,23.56
2024-03-21T20:57:20.769Z,23.55
2024-03-21T20:59:26.202Z,23.55
2024-03-21T21:01:31.752Z,23.55
2024-03-21T21:03:37.180Z,23.55
2024-03-21T21:05:42.622Z,23.55
2024-03-21T21:07:48.076Z,23.54
2024-03-21T21:09:53.500Z,23.54
2024-03-21T21:11:58.950Z,23.55
2024-03-21T21:14:04.497Z,23.57
2024-03-21T21:16:10.029Z,23.57
2024-03-21T21:18:15.472Z,23.55
2024-03-21T21:20:20.816Z,23.52
2024-03-21T21:22:26.250Z,23.51
2024-03-21T21:24:31.691Z,23.51
2024-03-21T21:26:37.342Z,23.5
2024-03-21T21:28:42.883Z,23.51
2024-03-21T21:30:48.426Z,23.51
2024-03-21T21:32:53.761Z,23.52
2024-03-21T21:34:59.195Z,23.54
2024-03-21T21:37:04.631Z,23.58
2024-03-21T21:39:10.088Z,23.61
2024-03-21T21:41:15.520Z,23.64
2024-03-21T21:43:20.960Z,23.65
2024-03-21T21:45:26.409Z,23.66
2024-03-21T21:47:31.756Z,23.67
2024-03-21T21:49:37.277Z,23.68
2024-03-21T21:51:42.714Z,23.67
2024-03-21T21:53:48.165Z,23.67
2024-03-21T21:55:53.494Z,23.67
2024-03-21T21:57:58.943Z,23.66
2024-03-21T22:00:04.385Z,23.66
2024-03-21T22:02:09.926Z,23.66
2024-03-21T22:04:15.292Z,23.66
2024-03-21T22:06:20.812Z,23.65
2024-03-21T22:08:26.450Z,23.65
2024-03-21T22:10:31.882Z,23.64
2024-03-21T22:12:37.442Z,23.65
2024-03-21T22:14:44.366Z,23.66
2024-03-21T22:16:51.077Z,23.67
2024-03-21T22:18:56.494Z,23.66
2024-03-21T22:21:01.964Z,23.65
2024-03-21T22:23:07.292Z,23.66
2024-03-21T22:25:13.132Z,23.66
2024-03-21T22:27:18.683Z,23.65
2024-03-21T22:29:24.128Z,23.66
2024-03-21T22:31:29.463Z,23.67
2024-03-21T22:33:34.930Z,23.67
2024-03-21T22:35:40.423Z,23.66
2024-03-21T22:37:45.994Z,23.66
2024-03-21T22:39:51.535Z,23.66
2024-03-21T22:41:56.979Z,23.66
2024-03-21T22:44:03.338Z,23.65
2024-03-21T22:46:08.781Z,23.66
2024-03-21T22:48:14.120Z,23.67
2024-03-21T22:50:19.456Z,23.66
2024-03-21T22:52:24.786Z,23.66
2024-03-21T22:54:30.331Z,23.66
2024-03-21T22:56:35.888Z,23.67
2024-03-21T22:58:41.322Z,23.66
2024-03-21T23:00:46.894Z,23.66
2024-03-21T23:02:52.206Z,23.65
2024-03-21T23:04:57.637Z,23.65
2024-03-21T23:07:02.977Z,23.66
2024-03-21T23:09:08.415Z,23.66
2024-03-21T23:11:13.753Z,23.65
2024-03-21T23:13:19.206Z,23.65
2024-03-21T23:15:24.642Z,23.65
2024-03-21T23:17:30.102Z,23.65
2024-03-21T23:19:35.558Z,23.65
2024-03-21T23:21:41.057Z,23.65
2024-03-21T23:23:46.401Z,23.66
2024-03-21T23:25:51.734Z,23.65
2024-03-21T23:27:57.175Z,23.66
2024-03-21T23:30:02.621Z,23.66
2024-03-21T23:32:08.163Z,23.65
2024-03-21T23:34:13.493Z,23.65
2024-03-21T23:36:18.935Z,23.66
2024-03-21T23:38:24.383Z,23.65
2024-03-21T23:40:29.817Z,23.65
2024-03-21T23:42:35.254Z,23.65
2024-03-21T23:44:40.703Z,23.65
2024-03-21T23:46:46.138Z,23.65
2024-03-21T23:48:51.477Z,23.64
2024-03-21T23:50:56.822Z,23.64
2024-03-21T23:53:02.257Z,23.62
2024-03-21T23:55:07.803Z,23.62
2024-03-21T23:57:13.258Z,23.61
2024-03-21T23:59:18.680Z,23.6
